TimeEST,TemperatureF,Dew PointF,Humidity,Sea Level PressureIn,VisibilityMPH,Wind Direction,Wind SpeedMPH,Gust SpeedMPH,PrecipitationIn,Events,Conditions,WindDirDegrees,DateUTC
12:15 AM,21.2,15.8,80,30.11,10.0,ESE,16.1,-,N/A,,Mostly Cloudy,110,2013-02-22 05:15:00
12:34 AM,21.2,15.8,80,30.10,10.0,ESE,23.0,27.6,N/A,,Overcast,110,2013-02-22 05:34:00
12:55 AM,21.2,15.8,80,30.07,10.0,ESE,20.7,29.9,N/A,,Mostly Cloudy,110,2013-02-22 05:55:00
1:15 AM,21.2,15.8,80,30.09,10.0,ESE,15.0,26.5,N/A,,Overcast,120,2013-02-22 06:15:00
1:35 AM,21.2,15.8,80,30.08,10.0,ESE,16.1,20.7,N/A,,Overcast,120,2013-02-22 06:35:00
1:55 AM,21.2,17.6,86,30.07,10.0,ESE,18.4,24.2,N/A,,Overcast,120,2013-02-22 06:55:00
2:15 AM,21.2,15.8,80,30.05,7.0,ESE,20.7,24.2,N/A,Snow,Light Snow,110,2013-02-22 07:15:00
2:35 AM,21.2,17.6,86,30.01,1.8,East,17.3,26.5,N/A,Snow,Light Snow,100,2013-02-22 07:35:00
2:55 AM,21.2,17.6,86,30.00,2.0,East,16.1,26.5,N/A,Snow,Light Snow,100,2013-02-22 07:55:00
3:14 AM,21.2,17.6,86,29.99,3.0,East,17.3,26.5,N/A,Snow,Light Snow,100,2013-02-22 08:14:00
3:35 AM,21.2,19.4,93,29.98,2.5,East,15.0,21.9,N/A,Snow,Light Snow,100,2013-02-22 08:35:00
3:55 AM,21.2,19.4,93,29.97,1.8,East,13.8,20.7,N/A,Snow,Light Snow,100,2013-02-22 08:55:00
4:14 AM,21.2,19.4,93,29.96,1.5,East,15.0,21.9,N/A,Snow,Light Snow,100,2013-02-22 09:14:00
4:35 AM,21.2,19.4,93,29.94,1.2,East,18.4,23.0,N/A,Snow,Light Snow,100,2013-02-22 09:35:00
4:55 AM,21.2,19.4,93,29.93,0.8,East,11.5,17.3,N/A,Snow,Snow,100,2013-02-22 09:55:00
5:14 AM,21.2,19.4,93,29.93,1.5,East,15.0,-,N/A,Snow,Light Snow,100,2013-02-22 10:14:00
5:35 AM,21.2,19.4,93,29.91,1.2,East,17.3,23.0,N/A,Snow,Light Snow,100,2013-02-22 10:35:00
5:55 AM,23.0,21.2,93,29.89,1.2,East,18.4,23.0,N/A,Snow,Light Snow,100,2013-02-22 10:55:00
6:14 AM,23.0,19.4,86,29.91,1.5,ESE,13.8,25.3,N/A,Snow,Light Snow,120,2013-02-22 11:14:00
6:35 AM,23.0,19.4,86,29.91,2.0,ESE,15.0,-,N/A,Snow,Light Snow,110,2013-02-22 11:35:00
7:15 AM,21.2,21.2,100,29.91,1.0,ESE,11.5,-,N/A,Snow,Snow,110,2013-02-22 12:15:00
7:54 AM,21.2,19.4,93,29.90,2.5,ESE,11.5,17.3,N/A,Snow,Light Snow,110,2013-02-22 12:54:00
8:15 AM,23.0,19.4,86,29.90,2.5,ESE,10.4,-,N/A,,Overcast,110,2013-02-22 13:15:00
8:54 AM,23.0,19.4,86,29.89,4.0,ESE,13.8,-,N/A,,Overcast,110,2013-02-22 13:54:00
9:54 AM,24.8,21.2,86,29.86,7.0,ESE,12.7,17.3,N/A,,Overcast,120,2013-02-22 14:54:00
10:35 AM,24.8,23.0,93,29.86,10.0,SE,8.1,-,N/A,,Overcast,130,2013-02-22 15:35:00
10:54 AM,24.8,23.0,93,29.85,10.0,SE,12.7,-,N/A,,Overcast,140,2013-02-22 15:54:00
11:15 AM,26.6,24.8,93,29.85,10.0,SE,10.4,-,N/A,,Overcast,140,2013-02-22 16:15:00
11:35 AM,26.6,24.8,93,29.86,10.0,SSE,9.2,-,N/A,,Overcast,160,2013-02-22 16:35:00
11:54 AM,26.6,24.8,93,29.86,10.0,SSE,6.9,-,N/A,,Overcast,150,2013-02-22 16:54:00
12:15 PM,28.4,24.8,86,29.86,7.0,SSE,9.2,-,N/A,,Overcast,150,2013-02-22 17:15:00
12:35 PM,28.4,26.6,93,29.85,10.0,SE,5.8,-,N/A,,Overcast,140,2013-02-22 17:35:00
12:54 PM,28.4,26.6,93,29.85,10.0,SSE,6.9,-,N/A,,Overcast,160,2013-02-22 17:54:00
1:34 PM,28.4,26.6,93,29.84,7.0,SSE,4.6,-,N/A,,Overcast,150,2013-02-22 18:34:00
1:55 PM,28.4,26.6,93,29.84,7.0,SSE,6.9,-,N/A,,Overcast,160,2013-02-22 18:55:00
2:15 PM,30.2,28.4,93,29.84,4.0,South,8.1,-,N/A,,Overcast,180,2013-02-22 19:15:00
2:35 PM,30.2,28.4,93,29.84,4.0,South,6.9,-,N/A,,Overcast,180,2013-02-22 19:35:00
2:55 PM,30.2,30.2,100,29.84,3.0,SSW,8.1,-,N/A,,Overcast,200,2013-02-22 19:55:00
3:15 PM,32.0,30.2,93,29.83,1.5,SSW,9.2,-,N/A,,Overcast,210,2013-02-22 20:15:00
3:35 PM,32.0,30.2,93,29.83,1.2,SSW,10.4,-,N/A,,Overcast,200,2013-02-22 20:35:00
6:35 PM,33.8,30.2,87,29.86,3.0,SW,13.8,19.6,N/A,,Overcast,230,2013-02-22 23:35:00
6:55 PM,33.8,30.2,87,29.86,4.0,SW,11.5,-,N/A,,Overcast,230,2013-02-22 23:55:00
7:15 PM,33.8,30.2,87,29.87,7.0,WSW,15.0,20.7,N/A,,Overcast,240,2013-02-23 00:15:00
7:35 PM,33.8,30.2,87,29.87,10.0,WSW,11.5,-,N/A,,Overcast,240,2013-02-23 00:35:00
7:54 PM,33.8,30.2,87,29.87,10.0,SW,13.8,20.7,N/A,,Overcast,230,2013-02-23 00:54:00
8:15 PM,33.8,28.4,81,29.87,10.0,SW,12.7,-,N/A,,Overcast,230,2013-02-23 01:15:00
8:35 PM,32.0,28.4,87,29.87,10.0,WSW,9.2,-,N/A,,Overcast,240,2013-02-23 01:35:00
8:54 PM,32.0,28.4,87,29.88,10.0,WSW,11.5,-,N/A,,Overcast,250,2013-02-23 01:54:00
9:15 PM,32.0,28.4,87,29.88,10.0,WSW,9.2,-,N/A,,Overcast,240,2013-02-23 02:15:00
9:35 PM,32.0,28.4,87,29.89,10.0,WSW,11.5,16.1,N/A,,Overcast,240,2013-02-23 02:35:00
9:54 PM,32.0,26.6,80,29.89,10.0,SW,10.4,-,N/A,,Overcast,230,2013-02-23 02:54:00
10:15 PM,32.0,26.6,80,29.89,10.0,WSW,12.7,-,N/A,,Overcast,240,2013-02-23 03:15:00
10:34 PM,30.2,26.6,86,29.89,10.0,WSW,12.7,17.3,N/A,,Overcast,240,2013-02-23 03:34:00
10:55 PM,30.2,26.6,86,29.89,10.0,WSW,11.5,-,N/A,,Overcast,250,2013-02-23 03:55:00
11:15 PM,30.2,24.8,80,29.89,10.0,WSW,10.4,-,N/A,,Overcast,240,2013-02-23 04:15:00
11:34 PM,30.2,24.8,80,29.89,10.0,WSW,10.4,-,N/A,,Overcast,240,2013-02-23 04:34:00
11:55 PM,30.2,24.8,80,29.89,10.0,WSW,10.4,-,N/A,,Overcast,250,2013-02-23 04:55:00